Impacts METAR Board
IDs:

KPHX - Phoenix/Sky Harbor, AZ, US

Updated at: 2100 UTC 20 Oct 2018
Potential Impact None Slight Moderate High
Time 20/09Z 20/10Z 20/11Z 20/12Z 20/13Z 20/14Z 20/15Z 20/16Z 20/17Z 20/18Z 20/19Z 20/20Z 20/21Z
Temp76 75 74 74 73 72 74 78 81 83 88 90 92
Dewpt49 50 51 52 53 54 55 55 55 57 56 56 55
Altim29.96 29.95 29.96 29.97 29.97 29.98 30.00 30.01 30.00 29.99 29.96 29.93 29.91
VIS10 10 10 10 10 10 10 10 10 10 10 10 10
CIG-- -- -- -- -- -- -- -- -- -- -- -- --
CoverSCTSCTSCTSCTFEWFEWFEWFEWFEWFEWFEWFEWFEW
FltCatVFRVFRVFRVFRVFRVFRVFRVFRVFRVFRVFRVFRVFR
WX--------------------------
WDir707060706060808090130130110120
WSpd13 12 11 9 8 6 4 10 7 5 10 13 12
WGst-- -- -- -- -- -- -- -- -- -- 19 18 19
Raw hourly METARs
KPHX 200851Z 07013KT 10SM SCT080 24/09 A2996 RMK AO2 SLP128 T02440094 53002
KPHX 200951Z 07012KT 10SM FEW080 SCT095 24/10 A2995 RMK AO2 SLP127 T02390100
KPHX 201051Z 06011KT 10SM SCT095 23/11 A2996 RMK AO2 SLP128 T02330106
KPHX 201151Z 07009KT 10SM SCT095 23/11 A2997 RMK AO2 SLP131 T02330111 10244 20233 53003
KPHX 201251Z 06008KT 10SM FEW100 23/12 A2997 RMK AO2 SLP135 T02280117
KPHX 201351Z 06006KT 10SM FEW100 22/12 A2998 RMK AO2 SLP137 T02220122
KPHX 201451Z 08004KT 10SM FEW100 23/13 A3000 RMK AO2 SLP143 T02330128 53010
KPHX 201551Z 08010KT 10SM FEW100 26/13 A3001 RMK AO2 SLP147 T02560128
KPHX 201651Z 09007KT 10SM FEW100 27/13 A3000 RMK AO2 SLP143 T02720128
KPHX 201751Z 13005KT 10SM FEW100 28/14 A2999 RMK AO2 SLP139 T02830139 10289 20211 58003
KPHX 201851Z 13010G19KT 10SM FEW100 31/13 A2996 RMK AO2 SLP128 T03110133
KPHX 201951Z 11013G18KT 10SM FEW100 32/13 A2993 RMK AO2 SLP117 T03220133
KPHX 202051Z 12012G19KT 10SM FEW100 33/13 A2991 RMK AO2 SLP109 T03330128 56027



Page loaded:  21:45 UTC  |   02:45 PM Pacific  |   03:45 PM Mountain  |   04:45 PM Central  |   05:45 PM Eastern

 

ADVISORIES

FORECASTS

FORECASTS

OBSERVATIONS

USER TOOLS

ABOUT US